Flight OLY10006

  • Submitted By: Stavros Sarikas
  • Departure Airport: MALPENSA (LIMC)
  • Arrival Airport: Olbia / Costa Smeralda Airport (LIEO)
  • Aircraft: A320-200 (SX-OAT)
  • Flight Time: 01.08
  • Date Submitted: 27/08/2017
  • Route: UNITA A9 OLETI Z911 MEGER Y16 MILNO G702 BTA
  • Status: Accepted
Flight Details
Gross Revenue:
(116 load / € 71.75 per unit
€ 8, 323.00
Fuel Cost:
(2606 fuel used @ 0.19 / unit)
€ 495.14

Additional Log Information:

View Log

Aircraft Used in flight is Airbus A320 British Airways G-EUUU
19:12 Boarding
19:12 Navigation Lights ON at 780 Feet
19:12 Beacon Lights ON at 780 Feet
19:12 Brakes are On
19:14 Engine 2 Started
19:16 Engine 1 Started
19:17 Brakes are Released
19:17 Pushing back
19:17 Boarding
19:17 Brakes are On
19:17 Brakes are Released
19:18 Flaps 3 Selected at 780ft and 32kts
19:18 Taxi Lights ON at 780 Feet
19:19 Brakes are On
19:19 Landing Lights ON at 780 AGL
19:19 Strobe Lights ON at 780 Feet
19:21 Brakes are Released
19:22 You Took off @ 155 Knots and Flaps at Position 3 With a heading of 169 Degrees
Departure Weather LIMC 271550Z 27005KT 230V340 CAVOK 34/16 Q1015 NOSIG
Departure Coordinates 45.6170188849196/ 8.7267084429967
Takeoff Weight=59663KG Fuel Weight=4816KG
19:22 TOC Reached
19:22 Landing Gear Up @ 160 Knots and 860 Feet
19:22 Taxi Lights OFF at 890 Feet
19:23 Flaps 2 Selected at 2270ft and 154kts
19:23 Flaps 0 Selected at 2560ft and 184kts
19:25 Above FL100 you need to switch of the landing lights
19:25 Landing Lights OFF at 10450 AGL
20:04 Below 10000 feet you are not allowed to go over 250 knots
20:04 Landing Lights ON at 9840 AGL
20:12 Flaps 1 Selected at 2950ft and 194kts
20:14 Flaps 3 Selected at 1970ft and 179kts
20:14 Landing Gear Down @ 176 Knots and 1900 Feet
20:14 Flaps 4 Selected at 1800ft and 162kts
20:15 Taxi Lights ON at 1770 Feet
20:15 Flaps 5 Selected at 1730ft and 156kts
20:18 You Landed @ 129 Knots with -387 Vertical Speed With a heading of 235 and with 2.984 G Force
Arrival Weather: LIEO 271650Z 04006KT CAVOK 28/23 Q1015
Arrival Coordinates 40.9031808535822/ 9.52623845892306
Landing Weight=57269KG Fuel Weight=2425KG
20:18 Taxiing to gate
20:18 Paused
20:19 Landing Lights OFF at 50 AGL
20:19 Strobe Lights OFF at 50 Feet
20:19 Flaps 0 Selected at 50ft and 30kts
20:20 Brakes are On
Pirep logged with OA Virtual Tracking 1.0.2.4

Route Map